Time;durP1;ratioP1;P1;durP2;ratioP2;P2;SDS_P1;SDS_P2;PMS_P1;PMS_P2;Temp;Humidity;BMP_temperature;BMP_pressure;BME280_temperature;BME280_humidity;BME280_pressure;Samples;Min_cycle;Max_cycle;Signal;HPM_P1;HPM_P2
2022/10/20 00:01:50;;;;;;;24.67;13.30;;;14.40;99.90;;;;;;5008120;28;20038;-63
2022/10/20 00:04:16;;;;;;;29.05;13.35;;;14.40;99.90;;;;;;5008379;28;20050;-64
2022/10/20 00:06:43;;;;;;;30.02;13.80;;;14.40;99.90;;;;;;5007774;28;20443;-63
2022/10/20 00:09:10;;;;;;;30.58;14.43;;;14.40;99.90;;;;;;5008607;28;20053;-63
2022/10/20 00:11:37;;;;;;;27.10;14.75;;;14.40;99.90;;;;;;4987289;28;20049;-64
2022/10/20 00:14:03;;;;;;;33.85;14.85;;;14.40;99.90;;;;;;5006317;28;20046;-65
2022/10/20 00:16:31;;;;;;;30.88;15.23;;;14.40;99.90;;;;;;5007732;28;20045;-62
2022/10/20 00:18:58;;;;;;;30.08;14.45;;;14.40;99.90;;;;;;5006460;28;20061;-63
2022/10/20 00:21:25;;;;;;;27.92;14.45;;;14.40;99.90;;;;;;5008105;28;20293;-65
2022/10/20 00:23:52;;;;;;;34.95;16.13;;;14.40;99.90;;;;;;5008222;28;20050;-64
2022/10/20 00:26:21;;;;;;;30.63;16.30;;;14.40;99.90;;;;;;5006512;28;20512;-63
2022/10/20 00:28:48;;;;;;;35.70;16.73;;;14.40;99.90;;;;;;4665753;28;9999811;-64
2022/10/20 00:31:15;;;;;;;24.38;14.10;;;14.40;99.90;;;;;;5021779;28;20435;-64
2022/10/20 00:33:41;;;;;;;34.20;15.25;;;14.40;99.90;;;;;;5008135;28;20060;-64
2022/10/20 00:36:10;;;;;;;33.25;13.93;;;14.40;99.90;;;;;;5008354;28;20045;-64
2022/10/20 00:38:37;;;;;;;28.23;15.55;;;14.40;99.90;;;;;;4991183;28;20046;-63
2022/10/20 00:41:03;;;;;;;26.77;14.85;;;14.40;99.90;;;;;;5008572;28;20511;-65
2022/10/20 00:43:57;;;;;;;26.55;15.63;;;14.40;99.90;;;;;;5005161;28;20408;-64
2022/10/20 00:46:37;;;;;;;26.07;14.67;;;14.40;99.90;;;;;;5008920;28;20046;-64
2022/10/20 00:49:19;;;;;;;36.13;18.85;;;14.40;99.90;;;;;;5007920;28;20056;-64
2022/10/20 00:51:46;;;;;;;31.15;15.23;;;14.40;99.90;;;;;;5022505;28;20172;-65
2022/10/20 00:54:15;;;;;;;40.30;18.10;;;14.40;99.90;;;;;;5032096;28;20046;-64
2022/10/20 00:56:42;;;;;;;35.08;15.55;;;14.40;99.90;;;;;;5030422;28;20054;-64
2022/10/20 00:59:10;;;;;;;31.08;14.60;;;14.40;99.90;;;;;;5028149;28;20046;-64
2022/10/20 01:01:37;;;;;;;37.78;16.48;;;14.40;99.90;;;;;;5027582;28;20061;-64
2022/10/20 01:04:04;;;;;;;32.72;17.10;;;14.40;99.90;;;;;;5007620;28;20070;-64
2022/10/20 01:06:30;;;;;;;30.15;16.38;;;14.50;99.90;;;;;;5008710;28;20046;-63
2022/10/20 01:08:57;;;;;;;35.17;16.80;;;14.50;99.90;;;;;;5016411;28;20445;-62
2022/10/20 01:11:47;;;;;;;31.13;16.77;;;14.50;99.90;;;;;;5011226;28;20053;-63
2022/10/20 01:15:12;;;;;;;30.88;16.38;;;14.50;99.90;;;;;;4992870;28;20057;-64
2022/10/20 01:18:03;;;;;;;33.53;15.73;;;14.50;99.90;;;;;;4967763;28;20546;-63
2022/10/20 01:20:52;;;;;;;31.85;14.57;;;14.50;99.90;;;;;;4991220;28;20364;-64
2022/10/20 01:23:40;;;;;;;28.05;16.15;;;14.60;99.90;;;;;;5000163;28;20096;-63
2022/10/20 01:26:12;;;;;;;31.77;16.95;;;14.60;99.90;;;;;;5012924;28;20072;-62
2022/10/20 01:28:47;;;;;;;29.48;15.70;;;14.60;99.90;;;;;;5018169;28;20046;-61
2022/10/20 01:31:23;;;;;;;30.63;16.38;;;14.60;99.90;;;;;;5033695;28;20068;-63
2022/10/20 01:34:07;;;;;;;31.73;15.38;;;14.60;99.90;;;;;;5033218;28;20046;-64
2022/10/20 01:36:49;;;;;;;34.25;16.73;;;14.60;99.90;;;;;;5016931;28;20528;-63
2022/10/20 01:39:49;;;;;;;30.42;17.40;;;14.60;99.90;;;;;;5027176;28;20110;-64
2022/10/20 01:42:21;;;;;;;27.85;16.67;;;14.60;99.90;;;;;;5014339;28;20030;-63
2022/10/20 01:44:49;;;;;;;37.50;17.73;;;14.60;99.90;;;;;;5036133;28;20089;-63
2022/10/20 01:47:15;;;;;;;27.92;15.07;;;14.70;99.90;;;;;;5019832;28;20105;-64
2022/10/20 01:49:42;;;;;;;29.77;15.73;;;14.60;99.90;;;;;;5029067;28;20078;-63
2022/10/20 01:52:10;;;;;;;31.63;15.57;;;14.70;99.90;;;;;;5004038;28;20046;-63
2022/10/20 01:54:37;;;;;;;32.10;16.73;;;14.70;99.90;;;;;;5002448;28;20124;-63
2022/10/20 01:57:09;;;;;;;29.05;15.90;;;14.70;99.90;;;;;;5011544;28;20041;-62
2022/10/20 02:00:11;;;;;;;29.88;16.42;;;14.70;99.90;;;;;;5011220;28;20409;-64
2022/10/20 02:02:49;;;;;;;24.65;15.43;;;14.80;99.90;;;;;;4990589;28;20046;-63
2022/10/20 02:05:41;;;;;;;31.25;16.40;;;14.80;99.90;;;;;;5010252;28;20033;-63
2022/10/20 02:08:19;;;;;;;29.27;17.42;;;14.80;99.90;;;;;;5014770;28;20043;-64
2022/10/20 02:10:50;;;;;;;30.27;15.93;;;14.80;99.90;;;;;;5029330;28;20042;-64
2022/10/20 02:13:18;;;;;;;31.90;15.45;;;14.70;99.90;;;;;;5007052;28;20388;-63
2022/10/20 02:15:47;;;;;;;31.83;15.75;;;14.80;99.90;;;;;;5016815;28;20048;-63
2022/10/20 02:18:16;;;;;;;32.15;15.43;;;14.80;99.90;;;;;;5021407;28;20065;-65
2022/10/20 02:20:45;;;;;;;34.53;17.20;;;14.90;99.90;;;;;;5009187;28;20420;-63
2022/10/20 02:23:12;;;;;;;33.90;17.25;;;14.90;99.90;;;;;;5009478;28;20061;-64
2022/10/20 02:25:38;;;;;;;25.85;15.52;;;14.90;99.90;;;;;;5010522;28;20050;-63
2022/10/20 02:28:07;;;;;;;31.90;14.45;;;14.90;99.90;;;;;;5008968;28;20060;-63
2022/10/20 02:30:34;;;;;;;37.60;17.25;;;15.00;99.90;;;;;;5008656;28;20049;-64
2022/10/20 02:33:01;;;;;;;25.05;15.88;;;15.00;99.90;;;;;;5008942;28;20213;-63
2022/10/20 02:35:31;;;;;;;34.10;16.25;;;15.00;99.90;;;;;;5008648;28;20307;-64
2022/10/20 02:37:58;;;;;;;25.52;15.88;;;15.10;99.90;;;;;;5010036;28;20089;-64
2022/10/20 02:40:25;;;;;;;32.80;16.45;;;15.10;99.90;;;;;;5009836;28;20113;-64
2022/10/20 02:42:52;;;;;;;36.20;16.02;;;15.20;99.90;;;;;;5009658;28;20054;-64
2022/10/20 02:45:19;;;;;;;31.33;17.70;;;15.20;99.90;;;;;;5009878;28;20046;-64
2022/10/20 02:47:45;;;;;;;27.10;15.82;;;15.30;99.90;;;;;;5009903;28;20050;-64
2022/10/20 02:50:12;;;;;;;29.88;16.48;;;15.20;99.90;;;;;;5009099;28;20512;-65
2022/10/20 02:52:39;;;;;;;27.00;17.17;;;15.30;99.90;;;;;;5009515;28;20042;-65
2022/10/20 02:55:06;;;;;;;38.70;17.33;;;15.30;99.90;;;;;;5009942;28;20465;-64
2022/10/20 02:57:33;;;;;;;39.20;17.27;;;15.30;99.90;;;;;;5015052;28;20100;-63
2022/10/20 03:00:01;;;;;;;31.92;18.45;;;15.30;99.90;;;;;;5012896;28;20057;-64
2022/10/20 03:02:27;;;;;;;33.55;16.98;;;15.40;99.90;;;;;;5010464;28;20060;-64
2022/10/20 03:04:54;;;;;;;31.83;16.92;;;15.30;99.90;;;;;;5010315;28;20141;-64
2022/10/20 03:07:21;;;;;;;28.80;17.15;;;15.40;99.90;;;;;;5009641;28;20060;-64
2022/10/20 03:09:47;;;;;;;31.75;16.10;;;15.40;99.90;;;;;;5009954;28;20432;-64
2022/10/20 03:12:14;;;;;;;30.45;17.20;;;15.40;99.90;;;;;;5013300;28;20057;-65
2022/10/20 03:14:41;;;;;;;36.85;16.92;;;15.40;99.90;;;;;;5034594;28;20034;-65
2022/10/20 03:17:08;;;;;;;35.58;17.77;;;15.50;99.90;;;;;;5033967;28;20046;-62
2022/10/20 03:19:35;;;;;;;28.75;16.55;;;15.40;99.90;;;;;;5023053;28;20060;-62
2022/10/20 03:22:02;;;;;;;36.83;18.15;;;15.40;99.90;;;;;;5024124;28;20041;-64
2022/10/20 03:24:28;;;;;;;38.97;17.10;;;15.50;99.90;;;;;;5023051;28;20049;-64
2022/10/20 03:26:55;;;;;;;43.85;18.02;;;15.40;99.90;;;;;;5011836;28;20038;-64
2022/10/20 03:29:22;;;;;;;28.27;14.57;;;15.40;99.90;;;;;;5008772;28;20056;-63
2022/10/20 03:31:48;;;;;;;33.22;16.63;;;15.50;99.90;;;;;;5008972;28;20046;-64
2022/10/20 03:34:20;;;;;;;38.55;17.77;;;15.50;99.90;;;;;;5008810;28;20107;-65
2022/10/20 03:36:47;;;;;;;30.67;17.20;;;15.50;99.90;;;;;;5009064;28;20450;-65
2022/10/20 03:39:13;;;;;;;33.25;18.10;;;15.50;99.90;;;;;;5008622;28;20050;-64
2022/10/20 03:41:40;;;;;;;38.15;18.23;;;15.60;99.90;;;;;;5009094;28;20728;-64
2022/10/20 03:44:09;;;;;;;32.60;16.08;;;15.60;99.90;;;;;;5008709;28;20054;-64
2022/10/20 03:46:35;;;;;;;39.75;17.63;;;15.60;99.90;;;;;;5009004;28;20081;-63
2022/10/20 03:49:02;;;;;;;29.70;18.13;;;15.60;99.90;;;;;;5008700;28;20054;-64
2022/10/20 03:51:29;;;;;;;47.83;17.13;;;15.60;99.90;;;;;;5007657;28;20046;-63
2022/10/20 03:53:56;;;;;;;50.97;19.83;;;15.60;99.90;;;;;;5008248;28;20062;-63
2022/10/20 03:56:22;;;;;;;36.78;19.23;;;15.60;99.90;;;;;;5008821;28;20053;-64
2022/10/20 03:58:49;;;;;;;32.80;18.60;;;15.60;99.90;;;;;;5008184;28;20045;-64
2022/10/20 04:01:17;;;;;;;44.03;19.67;;;15.60;99.90;;;;;;5008992;28;20050;-64
2022/10/20 04:03:44;;;;;;;34.25;18.38;;;15.60;99.90;;;;;;4985624;28;20462;-64
2022/10/20 04:06:11;;;;;;;43.20;19.23;;;15.60;99.90;;;;;;4997587;28;20047;-64
2022/10/20 04:08:38;;;;;;;31.98;17.73;;;15.60;99.90;;;;;;4995762;28;20049;-64
2022/10/20 04:11:05;;;;;;;33.38;17.77;;;15.60;99.90;;;;;;5008651;28;20100;-64
2022/10/20 04:13:32;;;;;;;31.17;17.33;;;15.60;99.90;;;;;;4993724;28;20132;-62
2022/10/20 04:15:59;;;;;;;29.63;17.65;;;15.60;99.90;;;;;;5008893;28;20150;-63
2022/10/20 04:18:25;;;;;;;39.95;18.80;;;15.60;99.90;;;;;;5008641;28;20049;-64
2022/10/20 04:20:52;;;;;;;41.65;17.88;;;15.60;99.90;;;;;;5008889;28;20054;-64
2022/10/20 04:23:19;;;;;;;38.03;18.75;;;15.60;99.90;;;;;;5009016;28;20068;-66
2022/10/20 04:25:47;;;;;;;34.55;17.10;;;15.60;99.90;;;;;;5008595;28;20042;-64
2022/10/20 04:28:15;;;;;;;34.53;17.40;;;15.60;99.90;;;;;;5008584;28;20089;-64
2022/10/20 04:30:41;;;;;;;48.63;19.52;;;15.60;99.90;;;;;;5010454;28;20077;-64
2022/10/20 04:33:08;;;;;;;26.52;15.35;;;15.60;99.90;;;;;;5012678;28;20298;-64
2022/10/20 04:35:35;;;;;;;31.20;17.10;;;15.70;99.90;;;;;;5012329;28;20493;-64
2022/10/20 04:38:02;;;;;;;31.95;17.90;;;15.60;99.90;;;;;;5012826;28;20049;-63
2022/10/20 04:40:28;;;;;;;41.95;17.48;;;15.70;99.90;;;;;;5011998;28;20525;-64
2022/10/20 04:42:57;;;;;;;44.00;18.05;;;15.70;99.90;;;;;;5012364;28;20068;-64
2022/10/20 04:45:23;;;;;;;38.63;18.15;;;15.70;99.90;;;;;;5012153;28;20080;-64
2022/10/20 04:47:50;;;;;;;33.97;16.35;;;15.70;99.90;;;;;;5012185;28;20058;-65
2022/10/20 04:50:17;;;;;;;31.40;17.45;;;15.80;99.90;;;;;;5012107;28;20041;-65
2022/10/20 04:52:44;;;;;;;38.70;17.70;;;15.80;99.90;;;;;;5011007;28;20054;-63
2022/10/20 04:55:10;;;;;;;44.17;18.65;;;15.80;99.90;;;;;;5012027;28;20053;-64
2022/10/20 04:57:37;;;;;;;33.38;17.50;;;15.80;99.90;;;;;;5012118;28;20050;-64
2022/10/20 05:00:05;;;;;;;33.47;19.98;;;15.80;99.90;;;;;;5011884;28;20062;-64
2022/10/20 05:02:31;;;;;;;35.30;17.00;;;15.80;99.90;;;;;;5011578;28;20042;-63
2022/10/20 05:04:58;;;;;;;35.13;16.83;;;15.80;99.90;;;;;;5011750;28;20069;-64
2022/10/20 05:07:27;;;;;;;31.48;17.50;;;15.80;99.90;;;;;;5011838;28;20046;-63
2022/10/20 05:09:54;;;;;;;34.20;18.02;;;15.80;99.90;;;;;;5011494;28;20046;-64
2022/10/20 05:12:21;;;;;;;40.33;18.05;;;15.80;99.90;;;;;;5009868;28;20140;-63
2022/10/20 05:14:47;;;;;;;37.13;17.88;;;15.80;99.90;;;;;;5011303;28;20164;-63
2022/10/20 05:17:14;;;;;;;38.92;16.92;;;15.80;99.90;;;;;;5011095;28;20065;-65
2022/10/20 05:19:41;;;;;;;38.40;18.42;;;15.90;99.90;;;;;;5011434;28;20062;-63
2022/10/20 05:22:08;;;;;;;38.55;18.90;;;15.80;99.90;;;;;;5011218;28;20050;-64
2022/10/20 05:24:34;;;;;;;33.55;17.90;;;15.90;99.90;;;;;;5011412;28;20050;-64
2022/10/20 05:27:01;;;;;;;32.00;16.70;;;15.80;99.90;;;;;;5011033;28;20046;-64
2022/10/20 05:29:28;;;;;;;40.97;19.38;;;15.80;99.90;;;;;;5011158;28;20046;-63
2022/10/20 05:31:55;;;;;;;33.75;18.65;;;15.80;99.90;;;;;;5010861;28;20082;-64
2022/10/20 05:34:22;;;;;;;33.63;17.33;;;15.80;99.90;;;;;;5010891;28;20482;-64
2022/10/20 05:36:51;;;;;;;37.40;18.15;;;15.80;99.90;;;;;;5010968;28;20046;-64
2022/10/20 05:39:17;;;;;;;39.45;18.17;;;15.80;99.90;;;;;;5010103;28;20045;-63
2022/10/20 05:41:44;;;;;;;32.05;16.67;;;15.80;99.90;;;;;;5010319;28;20050;-64
2022/10/20 05:44:11;;;;;;;39.45;17.83;;;15.80;99.90;;;;;;5010914;28;20054;-65
2022/10/20 05:46:41;;;;;;;47.90;21.05;;;15.80;99.90;;;;;;5011132;28;20038;-64
2022/10/20 05:49:13;;;;;;;33.80;19.05;;;15.80;99.90;;;;;;5010988;28;20050;-65
2022/10/20 05:51:39;;;;;;;33.42;17.98;;;15.80;99.90;;;;;;5009892;28;20096;-64
2022/10/20 05:54:08;;;;;;;38.05;17.67;;;15.80;99.90;;;;;;5010774;28;20057;-63
2022/10/20 05:56:35;;;;;;;34.75;18.65;;;15.70;99.90;;;;;;5010684;28;20050;-64
2022/10/20 05:59:01;;;;;;;29.67;19.00;;;15.80;99.90;;;;;;5009587;28;20050;-64
2022/10/20 06:01:38;;;;;;;38.65;18.42;;;15.80;99.90;;;;;;5010722;28;20046;-64
2022/10/20 06:04:07;;;;;;;30.35;17.85;;;15.70;99.90;;;;;;5009792;28;20104;-63
2022/10/20 06:06:34;;;;;;;39.35;19.17;;;15.80;99.90;;;;;;5010627;28;20564;-64
2022/10/20 06:09:04;;;;;;;39.97;18.98;;;15.80;99.90;;;;;;5010334;28;20128;-65
2022/10/20 06:11:31;;;;;;;42.08;18.77;;;15.80;99.90;;;;;;5010680;28;20046;-64
2022/10/20 06:14:04;;;;;;;35.67;19.42;;;15.80;99.90;;;;;;5010311;28;20536;-63
2022/10/20 06:16:31;;;;;;;40.30;20.20;;;15.80;99.90;;;;;;5010418;28;20064;-63
2022/10/20 06:18:58;;;;;;;34.30;18.67;;;15.80;99.90;;;;;;5010260;28;20065;-63
2022/10/20 06:21:30;;;;;;;43.22;17.38;;;15.80;99.90;;;;;;5010051;28;20164;-62
2022/10/20 06:24:00;;;;;;;31.48;18.05;;;15.80;99.90;;;;;;5009782;28;20056;-64
2022/10/20 06:26:28;;;;;;;37.05;17.30;;;15.90;99.90;;;;;;5009040;28;20050;-65
2022/10/20 06:28:56;;;;;;;37.35;17.38;;;15.80;99.90;;;;;;5009971;28;20042;-64
2022/10/20 06:31:34;;;;;;;35.75;17.25;;;15.80;99.90;;;;;;5010156;28;20076;-64
2022/10/20 06:34:02;;;;;;;31.95;17.00;;;15.90;99.90;;;;;;5009652;28;20057;-64
2022/10/20 06:36:29;;;;;;;27.75;17.52;;;15.90;99.90;;;;;;5008201;28;20046;-64
2022/10/20 06:38:57;;;;;;;34.58;17.27;;;15.90;99.90;;;;;;5009826;28;20081;-64
2022/10/20 06:41:24;;;;;;;35.35;17.67;;;15.90;99.90;;;;;;5009598;28;20057;-64
2022/10/20 06:43:57;;;;;;;31.23;17.33;;;15.90;99.90;;;;;;5011079;28;20539;-63
2022/10/20 06:46:23;;;;;;;33.75;17.70;;;15.90;99.90;;;;;;5009135;28;20050;-64
2022/10/20 06:48:50;;;;;;;35.58;18.23;;;15.90;99.90;;;;;;5013840;28;20387;-62
2022/10/20 06:51:23;;;;;;;33.58;18.20;;;16.00;99.90;;;;;;5009575;28;20049;-63
2022/10/20 06:53:50;;;;;;;38.08;17.38;;;15.90;99.90;;;;;;5011210;28;20046;-64
2022/10/20 06:56:18;;;;;;;41.45;21.23;;;16.00;99.90;;;;;;5009689;28;20089;-63
2022/10/20 06:58:46;;;;;;;28.15;16.90;;;15.90;99.90;;;;;;5009511;28;20092;-63
2022/10/20 07:01:15;;;;;;;27.98;17.25;;;15.90;99.90;;;;;;5008703;28;20425;-63
2022/10/20 07:03:42;;;;;;;29.90;18.52;;;15.90;99.90;;;;;;4990059;28;20046;-64
2022/10/20 07:06:12;;;;;;;24.00;16.30;;;15.90;99.90;;;;;;5009264;28;20045;-63
2022/10/20 07:08:38;;;;;;;31.95;17.10;;;16.00;99.90;;;;;;5008316;28;20056;-63
2022/10/20 07:11:06;;;;;;;35.15;18.42;;;16.00;99.90;;;;;;5009015;28;20129;-64
2022/10/20 07:13:33;;;;;;;29.67;16.55;;;16.00;99.90;;;;;;5009103;28;20045;-64
2022/10/20 07:16:00;;;;;;;33.17;19.17;;;15.90;99.90;;;;;;5008595;28;20058;-65
2022/10/20 07:18:27;;;;;;;30.10;17.13;;;15.90;99.90;;;;;;5008884;28;20137;-65
2022/10/20 07:21:02;;;;;;;28.60;16.40;;;15.90;99.90;;;;;;5007406;28;20050;-65
2022/10/20 07:23:30;;;;;;;26.98;15.48;;;15.90;99.90;;;;;;5006430;28;20509;-66
2022/10/20 07:26:17;;;;;;;21.02;14.82;;;15.90;99.90;;;;;;5009009;28;20744;-67
2022/10/20 07:28:55;;;;;;;26.08;16.17;;;15.90;99.90;;;;;;5009284;28;20053;-67
2022/10/20 07:31:22;;;;;;;27.98;16.33;;;15.90;99.90;;;;;;5008724;28;20192;-67
2022/10/20 07:33:49;;;;;;;39.72;17.35;;;15.90;99.90;;;;;;5007612;28;20042;-66
2022/10/20 07:36:36;;;;;;;27.73;15.02;;;15.90;99.90;;;;;;5008533;28;20077;-66
2022/10/20 07:39:04;;;;;;;25.92;13.68;;;15.80;99.90;;;;;;4661950;28;10000241;-67
2022/10/20 07:41:32;;;;;;;22.88;12.88;;;15.80;99.90;;;;;;5005704;28;20124;-67
2022/10/20 07:43:58;;;;;;;17.67;11.85;;;15.90;99.90;;;;;;5005808;28;20056;-67
2022/10/20 07:46:25;;;;;;;19.45;12.27;;;15.90;99.90;;;;;;5005242;28;20048;-66
2022/10/20 07:48:52;;;;;;;26.73;12.52;;;15.90;99.90;;;;;;4984631;28;20057;-65
2022/10/20 07:51:25;;;;;;;19.13;12.40;;;15.90;99.90;;;;;;4995445;28;20061;-66
2022/10/20 07:54:03;;;;;;;20.30;13.52;;;15.90;99.90;;;;;;5005765;28;20053;-67
2022/10/20 07:56:34;;;;;;;25.42;13.25;;;15.90;99.90;;;;;;5005234;28;20042;-67
2022/10/20 07:59:01;;;;;;;22.60;12.82;;;15.90;99.90;;;;;;5005663;28;20141;-67
2022/10/20 08:01:28;;;;;;;20.55;12.70;;;16.00;99.90;;;;;;5005426;28;20052;-65
2022/10/20 08:03:54;;;;;;;23.10;12.93;;;15.90;99.90;;;;;;5005686;28;20488;-67
2022/10/20 08:06:21;;;;;;;27.25;12.48;;;16.00;99.90;;;;;;5004313;28;20388;-67
2022/10/20 08:08:48;;;;;;;21.83;12.93;;;16.00;99.90;;;;;;4994640;28;20512;-67
2022/10/20 08:11:15;;;;;;;28.63;13.15;;;16.00;99.90;;;;;;5005621;28;20065;-67
2022/10/20 08:13:42;;;;;;;19.30;11.10;;;16.10;99.90;;;;;;4988051;28;20049;-67
2022/10/20 08:16:09;;;;;;;22.52;11.00;;;16.10;99.90;;;;;;5004857;28;20068;-67
2022/10/20 08:18:36;;;;;;;24.95;10.52;;;16.00;99.90;;;;;;5003279;28;20128;-66
2022/10/20 08:21:18;;;;;;;20.83;10.60;;;16.10;99.90;;;;;;5003537;28;20061;-68
2022/10/20 08:23:46;;;;;;;24.08;12.18;;;16.10;99.90;;;;;;5004525;28;20125;-67
2022/10/20 08:26:16;;;;;;;21.70;11.82;;;16.10;99.90;;;;;;5005264;28;20138;-67
2022/10/20 08:28:42;;;;;;;24.20;11.13;;;16.10;99.90;;;;;;5005074;28;20232;-67
2022/10/20 08:31:09;;;;;;;19.25;11.55;;;16.10;99.90;;;;;;5005177;28;20144;-66
2022/10/20 08:33:36;;;;;;;24.92;12.77;;;16.20;99.90;;;;;;5005015;28;20432;-68
2022/10/20 08:36:04;;;;;;;21.80;11.82;;;16.20;99.90;;;;;;5005747;28;20054;-67
2022/10/20 08:38:30;;;;;;;27.95;12.25;;;16.20;99.90;;;;;;5004714;28;20046;-67
2022/10/20 08:40:58;;;;;;;25.67;12.27;;;16.20;99.90;;;;;;5003986;28;20464;-67
2022/10/20 08:43:25;;;;;;;24.70;12.68;;;16.30;99.90;;;;;;4984252;28;20178;-66
2022/10/20 08:45:52;;;;;;;32.63;17.92;;;16.40;99.90;;;;;;5001243;28;20576;-66
2022/10/20 08:48:23;;;;;;;29.10;15.38;;;16.40;99.90;;;;;;5002826;28;20057;-67
2022/10/20 08:50:51;;;;;;;26.35;12.52;;;16.40;99.90;;;;;;5001250;28;20125;-65
2022/10/20 08:53:18;;;;;;;19.90;13.20;;;16.40;99.90;;;;;;5002963;28;20060;-65
2022/10/20 08:55:45;;;;;;;27.60;16.42;;;16.40;99.90;;;;;;5004529;28;20098;-66
2022/10/20 08:58:14;;;;;;;27.90;13.13;;;16.50;99.90;;;;;;5003578;28;20254;-67
2022/10/20 09:00:41;;;;;;;21.75;12.15;;;16.50;99.90;;;;;;5003683;28;20054;-66
2022/10/20 09:03:17;;;;;;;26.15;12.02;;;16.50;99.90;;;;;;5004932;28;20072;-65
2022/10/20 09:05:47;;;;;;;23.55;10.27;;;16.40;99.90;;;;;;4994698;28;20046;-66
2022/10/20 09:08:14;;;;;;;16.92;9.60;;;16.40;99.90;;;;;;5004653;28;20052;-66
2022/10/20 09:10:45;;;;;;;24.40;12.27;;;16.40;99.90;;;;;;5003939;28;20446;-66
2022/10/20 09:13:22;;;;;;;18.10;11.40;;;16.50;99.90;;;;;;5005201;28;20520;-67
2022/10/20 09:16:02;;;;;;;19.95;11.00;;;16.50;99.90;;;;;;5004428;28;20569;-66
2022/10/20 09:18:29;;;;;;;22.17;11.57;;;16.50;99.90;;;;;;5009397;28;20060;-66
2022/10/20 09:21:17;;;;;;;28.63;17.15;;;16.40;99.90;;;;;;4994740;28;20593;-66
2022/10/20 09:23:45;;;;;;;23.15;13.40;;;16.50;99.90;;;;;;5008390;28;20038;-66
2022/10/20 09:26:14;;;;;;;23.15;13.95;;;16.40;99.90;;;;;;5009538;28;20129;-66
2022/10/20 09:29:18;;;;;;;28.17;15.02;;;16.40;99.90;;;;;;5009515;28;20061;-66
2022/10/20 09:31:46;;;;;;;21.35;14.82;;;16.50;99.90;;;;;;4999896;28;20049;-66
2022/10/20 09:34:23;;;;;;;25.98;17.13;;;16.40;99.90;;;;;;5008666;28;20061;-66
2022/10/20 09:36:58;;;;;;;20.60;14.55;;;16.40;99.90;;;;;;4998119;28;20501;-66
2022/10/20 09:39:27;;;;;;;22.17;13.45;;;16.40;99.90;;;;;;5006551;28;20048;-66
2022/10/20 09:42:04;;;;;;;20.25;13.90;;;16.50;99.90;;;;;;4997141;28;20054;-65
2022/10/20 09:44:38;;;;;;;17.00;10.70;;;16.50;99.90;;;;;;4989993;28;20171;-66
2022/10/20 09:47:04;;;;;;;;;;;16.50;99.90;;;;;;5007249;28;20050;-66
2022/10/20 09:49:31;;;;;;;16.45;10.07;;;16.50;99.90;;;;;;5006357;28;20579;-65
2022/10/20 09:51:59;;;;;;;14.40;10.00;;;16.60;99.90;;;;;;5008295;28;20548;-66
2022/10/20 09:54:25;;;;;;;18.90;9.48;;;16.60;99.90;;;;;;4990644;28;20534;-65
2022/10/20 09:56:52;;;;;;;16.65;10.20;;;16.60;99.90;;;;;;5008046;28;20057;-66
2022/10/20 09:59:25;;;;;;;18.42;10.18;;;16.60;99.90;;;;;;4991943;28;20054;-66
2022/10/20 10:01:52;;;;;;;14.55;9.38;;;16.70;99.90;;;;;;5008648;28;20205;-66
2022/10/20 10:04:35;;;;;;;12.43;7.78;;;16.70;99.90;;;;;;5010713;28;20050;-65
2022/10/20 10:07:02;;;;;;;16.63;8.52;;;16.70;99.90;;;;;;5009959;28;20050;-66
2022/10/20 10:09:33;;;;;;;15.15;7.10;;;16.70;99.90;;;;;;5009951;28;20076;-65
2022/10/20 10:12:09;;;;;;;13.57;6.75;;;16.60;99.90;;;;;;5009555;28;20054;-66
2022/10/20 10:14:36;;;;;;;13.13;6.60;;;16.60;99.90;;;;;;5009225;28;20133;-66
2022/10/20 10:17:03;;;;;;;12.13;7.00;;;16.60;99.90;;;;;;5007489;28;20042;-67
2022/10/20 10:19:31;;;;;;;12.80;6.10;;;16.50;99.90;;;;;;5006349;28;20058;-66
2022/10/20 10:21:59;;;;;;;14.15;6.93;;;16.40;99.90;;;;;;5006184;28;20046;-67
2022/10/20 10:24:38;;;;;;;10.77;6.43;;;16.40;99.90;;;;;;5005868;28;20601;-67
2022/10/20 10:27:25;;;;;;;14.02;6.00;;;16.40;99.90;;;;;;5007090;28;20057;-67
2022/10/20 10:29:53;;;;;;;21.52;6.97;;;16.30;99.90;;;;;;4987665;28;20055;-67
2022/10/20 10:32:25;;;;;;;18.58;7.00;;;16.30;99.90;;;;;;5005686;28;20045;-67
2022/10/20 10:35:10;;;;;;;12.60;6.32;;;16.30;99.90;;;;;;5006893;28;20046;-67
2022/10/20 10:37:37;;;;;;;18.42;7.30;;;16.30;99.90;;;;;;5007371;28;20069;-68
2022/10/20 10:40:15;;;;;;;15.70;7.25;;;16.30;99.90;;;;;;5006271;28;20050;-67
2022/10/20 10:42:45;;;;;;;14.98;7.28;;;16.20;99.90;;;;;;5006406;28;20326;-68
2022/10/20 10:45:44;;;;;;;14.38;7.10;;;16.20;99.90;;;;;;5007210;28;20053;-68
2022/10/20 10:48:20;;;;;;;16.33;6.38;;;16.40;99.90;;;;;;5006292;28;20457;-68
2022/10/20 10:50:59;;;;;;;17.13;7.22;;;16.50;99.90;;;;;;5006332;28;20072;-68
2022/10/20 10:53:35;;;;;;;12.80;7.13;;;16.60;99.90;;;;;;5007115;28;20145;-68
2022/10/20 10:56:14;;;;;;;12.20;7.65;;;16.80;99.90;;;;;;5007065;28;20050;-68
2022/10/20 10:59:02;;;;;;;17.33;4.85;;;16.80;99.90;;;;;;5006446;28;20096;-68
2022/10/20 11:02:06;;;;;;;13.10;4.03;;;16.80;99.90;;;;;;5006145;28;20062;-67
2022/10/20 11:05:10;;;;;;;9.80;4.63;;;16.70;99.90;;;;;;5006947;28;20042;-67
2022/10/20 11:08:01;;;;;;;6.20;4.43;;;16.80;99.90;;;;;;5006734;28;20062;-68
2022/10/20 11:11:00;;;;;;;14.90;4.68;;;16.90;99.90;;;;;;5006710;28;20061;-68
2022/10/20 11:13:31;;;;;;;15.20;5.78;;;17.00;99.90;;;;;;5005108;28;20283;-67
2022/10/20 11:16:06;;;;;;;12.98;4.97;;;17.00;99.90;;;;;;5005488;28;20517;-68
2022/10/20 11:18:59;;;;;;;15.18;5.60;;;17.10;99.90;;;;;;5006350;28;20548;-67
2022/10/20 11:21:41;;;;;;;11.50;4.55;;;17.20;99.90;;;;;;5006505;28;20061;-65
2022/10/20 11:24:12;;;;;;;15.20;4.67;;;17.20;99.90;;;;;;5005356;28;20053;-67
2022/10/20 11:26:40;;;;;;;9.48;4.68;;;17.20;99.90;;;;;;4989284;28;20116;-68
2022/10/20 11:29:25;;;;;;;9.60;4.75;;;17.20;99.90;;;;;;5005203;28;20060;-68
2022/10/20 11:32:10;;;;;;;4.90;3.60;;;17.20;99.90;;;;;;4985997;28;20053;-67
2022/10/20 11:34:55;;;;;;;11.00;4.25;;;17.20;99.90;;;;;;5001787;28;20054;-68
2022/10/20 11:37:28;;;;;;;8.68;3.80;;;17.20;99.90;;;;;;5006211;28;20054;-68
2022/10/20 11:40:27;;;;;;;7.88;3.97;;;17.20;99.90;;;;;;5004438;28;20049;-68
2022/10/20 11:43:20;;;;;;;8.27;3.38;;;17.30;99.90;;;;;;5001264;28;20050;-67
2022/10/20 11:45:55;;;;;;;13.88;4.03;;;17.30;99.90;;;;;;5005137;28;20053;-67
2022/10/20 11:48:40;;;;;;;8.70;4.28;;;17.20;99.90;;;;;;5005965;28;20416;-66
2022/10/20 11:51:28;;;;;;;10.65;4.00;;;17.20;99.90;;;;;;5006258;28;20511;-67
2022/10/20 11:54:27;;;;;;;7.05;4.65;;;17.30;99.90;;;;;;5006052;28;20058;-65
2022/10/20 11:57:22;;;;;;;14.85;4.95;;;17.20;99.90;;;;;;4994707;28;20054;-66
2022/10/20 12:00:11;;;;;;;8.43;3.90;;;17.20;99.90;;;;;;4997819;28;20060;-68
2022/10/20 12:02:43;;;;;;;10.23;4.55;;;17.20;99.90;;;;;;5006078;28;20116;-67
2022/10/20 12:05:16;;;;;;;10.82;4.53;;;17.20;99.90;;;;;;5005733;28;20046;-67
2022/10/20 12:08:07;;;;;;;15.35;5.65;;;17.20;99.90;;;;;;5005831;28;20050;-68
2022/10/20 12:11:01;;;;;;;13.90;5.00;;;17.30;99.90;;;;;;5005621;28;20061;-67
2022/10/20 12:13:34;;;;;;;13.90;4.88;;;17.20;99.90;;;;;;5006560;28;20049;-67
2022/10/20 12:16:01;;;;;;;10.98;3.83;;;17.20;99.90;;;;;;5006891;28;20046;-68
2022/10/20 12:18:28;;;;;;;5.60;2.63;;;17.20;99.90;;;;;;5007133;28;20060;-68
2022/10/20 12:21:00;;;;;;;11.80;3.95;;;17.10;99.90;;;;;;5008295;28;20056;-68
2022/10/20 12:23:45;;;;;;;8.50;4.00;;;17.00;99.90;;;;;;5023692;28;20060;-68
2022/10/20 12:26:33;;;;;;;9.43;3.22;;;16.90;99.90;;;;;;5008223;28;20073;-69
2022/10/20 12:29:02;;;;;;;10.35;3.72;;;16.90;99.90;;;;;;4988957;28;20062;-70
2022/10/20 12:32:06;;;;;;;10.05;4.70;;;16.80;99.90;;;;;;5004760;28;20410;-70
2022/10/20 12:34:39;;;;;;;7.93;3.38;;;16.80;99.90;;;;;;4988272;28;20047;-70
2022/10/20 12:37:30;;;;;;;7.88;3.28;;;16.70;99.90;;;;;;5007965;28;20050;-70
2022/10/20 12:40:05;;;;;;;11.45;4.75;;;16.70;99.90;;;;;;5006852;28;20136;-67
2022/10/20 12:42:36;;;;;;;14.30;3.95;;;16.70;99.90;;;;;;5004012;28;20053;-69
2022/10/20 12:45:19;;;;;;;11.35;3.28;;;16.70;99.90;;;;;;5006437;28;20057;-67
2022/10/20 12:47:51;;;;;;;9.52;2.65;;;16.70;99.90;;;;;;4994819;28;20081;-69
2022/10/20 12:50:29;;;;;;;4.07;2.15;;;16.70;99.90;;;;;;5007051;28;20434;-67
2022/10/20 12:53:07;;;;;;;4.78;1.73;;;16.70;99.90;;;;;;5009342;28;20452;-68
2022/10/20 12:55:36;;;;;;;8.35;2.00;;;16.80;99.90;;;;;;5012079;28;20487;-68